sensor_id;sensor_type;location;lat;lon;timestamp;P1;durP1;ratioP1;P2;durP2;ratioP2
2884;SDS011;54691;48.262;11.586;2022-12-20T00:00:05;4.00;;;1.55;;
2884;SDS011;54691;48.262;11.586;2022-12-20T00:07:02;5.78;;;2.40;;
2884;SDS011;54691;48.262;11.586;2022-12-20T00:13:59;7.62;;;3.35;;
2884;SDS011;54691;48.262;11.586;2022-12-20T00:20:57;9.05;;;3.35;;
2884;SDS011;54691;48.262;11.586;2022-12-20T00:27:54;4.55;;;1.30;;
2884;SDS011;54691;48.262;11.586;2022-12-20T00:34:51;7.80;;;3.33;;
2884;SDS011;54691;48.262;11.586;2022-12-20T00:41:48;6.33;;;2.25;;
2884;SDS011;54691;48.262;11.586;2022-12-20T00:48:45;37.67;;;10.75;;
2884;SDS011;54691;48.262;11.586;2022-12-20T00:55:45;15.70;;;5.10;;
2884;SDS011;54691;48.262;11.586;2022-12-20T01:02:42;16.40;;;6.17;;
2884;SDS011;54691;48.262;11.586;2022-12-20T01:09:39;1.57;;;0.93;;
2884;SDS011;54691;48.262;11.586;2022-12-20T01:16:37;25.62;;;8.48;;
2884;SDS011;54691;48.262;11.586;2022-12-20T01:23:35;28.85;;;9.43;;
2884;SDS011;54691;48.262;11.586;2022-12-20T01:30:32;9.18;;;2.60;;
2884;SDS011;54691;48.262;11.586;2022-12-20T01:37:30;1.77;;;1.02;;
2884;SDS011;54691;48.262;11.586;2022-12-20T01:51:28;3.08;;;1.15;;
2884;SDS011;54691;48.262;11.586;2022-12-20T01:58:26;9.85;;;4.40;;
2884;SDS011;54691;48.262;11.586;2022-12-20T02:05:23;21.40;;;7.42;;
2884;SDS011;54691;48.262;11.586;2022-12-20T02:12:21;11.03;;;3.80;;
2884;SDS011;54691;48.262;11.586;2022-12-20T02:30:33;8.80;;;3.37;;
2884;SDS011;54691;48.262;11.586;2022-12-20T02:37:30;1.05;;;0.70;;
2884;SDS011;54691;48.262;11.586;2022-12-20T02:44:27;0.50;;;0.30;;
2884;SDS011;54691;48.262;11.586;2022-12-20T02:48:16;0.10;;;0.10;;
2884;SDS011;54691;48.262;11.586;2022-12-20T02:55:14;0.28;;;0.15;;
2884;SDS011;54691;48.262;11.586;2022-12-20T03:02:11;14.85;;;4.95;;
2884;SDS011;54691;48.262;11.586;2022-12-20T03:09:08;1.95;;;1.25;;
2884;SDS011;54691;48.262;11.586;2022-12-20T03:16:05;0.45;;;0.45;;
2884;SDS011;54691;48.262;11.586;2022-12-20T03:23:04;2.75;;;1.22;;
2884;SDS011;54691;48.262;11.586;2022-12-20T03:30:01;0.42;;;0.20;;
2884;SDS011;54691;48.262;11.586;2022-12-20T03:37:02;0.10;;;0.10;;
2884;SDS011;54691;48.262;11.586;2022-12-20T03:43:59;0.85;;;0.42;;
2884;SDS011;54691;48.262;11.586;2022-12-20T03:50:56;27.27;;;7.22;;
2884;SDS011;54691;48.262;11.586;2022-12-20T03:57:53;2.98;;;1.47;;
2884;SDS011;54691;48.262;11.586;2022-12-20T04:04:50;11.33;;;3.47;;
2884;SDS011;54691;48.262;11.586;2022-12-20T04:11:47;8.35;;;2.92;;
2884;SDS011;54691;48.262;11.586;2022-12-20T04:18:44;6.95;;;1.98;;
2884;SDS011;54691;48.262;11.586;2022-12-20T04:25:41;7.60;;;3.30;;
2884;SDS011;54691;48.262;11.586;2022-12-20T04:32:38;8.93;;;3.60;;
2884;SDS011;54691;48.262;11.586;2022-12-20T04:39:35;8.43;;;2.90;;
2884;SDS011;54691;48.262;11.586;2022-12-20T04:46:32;3.08;;;1.27;;
2884;SDS011;54691;48.262;11.586;2022-12-20T04:53:29;0.20;;;0.20;;
2884;SDS011;54691;48.262;11.586;2022-12-20T04:57:09;0.10;;;0.10;;
2884;SDS011;54691;48.262;11.586;2022-12-20T05:04:06;0.42;;;0.20;;
2884;SDS011;54691;48.262;11.586;2022-12-20T05:11:03;2.92;;;1.25;;
2884;SDS011;54691;48.262;11.586;2022-12-20T05:18:00;4.10;;;1.85;;
2884;SDS011;54691;48.262;11.586;2022-12-20T05:28:46;3.00;;;1.50;;
2884;SDS011;54691;48.262;11.586;2022-12-20T05:35:43;17.73;;;6.33;;
2884;SDS011;54691;48.262;11.586;2022-12-20T05:42:41;14.55;;;5.83;;
2884;SDS011;54691;48.262;11.586;2022-12-20T05:49:38;25.65;;;7.45;;
2884;SDS011;54691;48.262;11.586;2022-12-20T05:56:35;7.17;;;3.37;;
2884;SDS011;54691;48.262;11.586;2022-12-20T06:03:32;20.52;;;8.30;;
2884;SDS011;54691;48.262;11.586;2022-12-20T06:10:32;10.45;;;3.35;;
2884;SDS011;54691;48.262;11.586;2022-12-20T06:17:32;3.67;;;1.55;;
2884;SDS011;54691;48.262;11.586;2022-12-20T06:24:30;2.70;;;0.90;;
2884;SDS011;54691;48.262;11.586;2022-12-20T06:31:28;16.20;;;4.37;;
2884;SDS011;54691;48.262;11.586;2022-12-20T06:35:09;7.28;;;3.02;;
2884;SDS011;54691;48.262;11.586;2022-12-20T06:42:06;18.60;;;7.35;;
2884;SDS011;54691;48.262;11.586;2022-12-20T06:49:03;27.93;;;7.75;;
2884;SDS011;54691;48.262;11.586;2022-12-20T06:56:00;8.08;;;3.22;;
2884;SDS011;54691;48.262;11.586;2022-12-20T07:02:57;14.98;;;5.60;;
2884;SDS011;54691;48.262;11.586;2022-12-20T07:09:55;14.53;;;5.70;;
2884;SDS011;54691;48.262;11.586;2022-12-20T07:16:52;21.30;;;7.92;;
2884;SDS011;54691;48.262;11.586;2022-12-20T07:23:49;16.82;;;5.65;;
2884;SDS011;54691;48.262;11.586;2022-12-20T07:30:46;6.72;;;3.22;;
2884;SDS011;54691;48.262;11.586;2022-12-20T07:37:43;7.42;;;3.05;;
2884;SDS011;54691;48.262;11.586;2022-12-20T07:44:40;24.72;;;7.22;;
2884;SDS011;54691;48.262;11.586;2022-12-20T07:51:39;21.45;;;9.18;;
2884;SDS011;54691;48.262;11.586;2022-12-20T07:58:37;5.67;;;2.47;;
2884;SDS011;54691;48.262;11.586;2022-12-20T08:05:36;22.17;;;7.60;;
2884;SDS011;54691;48.262;11.586;2022-12-20T08:12:33;16.05;;;5.53;;
2884;SDS011;54691;48.262;11.586;2022-12-20T08:19:30;5.97;;;2.90;;
2884;SDS011;54691;48.262;11.586;2022-12-20T08:26:27;11.65;;;4.05;;
2884;SDS011;54691;48.262;11.586;2022-12-20T08:33:25;10.68;;;4.12;;
2884;SDS011;54691;48.262;11.586;2022-12-20T08:40:24;22.50;;;5.55;;
2884;SDS011;54691;48.262;11.586;2022-12-20T08:47:21;11.48;;;5.08;;
2884;SDS011;54691;48.262;11.586;2022-12-20T08:54:18;1.65;;;0.98;;
2884;SDS011;54691;48.262;11.586;2022-12-20T09:01:23;0.65;;;0.33;;
2884;SDS011;54691;48.262;11.586;2022-12-20T09:08:16;21.12;;;7.28;;
2884;SDS011;54691;48.262;11.586;2022-12-20T09:12:09;3.92;;;2.45;;
2884;SDS011;54691;48.262;11.586;2022-12-20T09:19:16;21.12;;;6.33;;
2884;SDS011;54691;48.262;11.586;2022-12-20T09:36:47;10.18;;;3.95;;
2884;SDS011;54691;48.262;11.586;2022-12-20T09:47:43;5.35;;;1.95;;
2884;SDS011;54691;48.262;11.586;2022-12-20T10:27:28;20.43;;;5.87;;
2884;SDS011;54691;48.262;11.586;2022-12-20T10:38:04;8.85;;;4.00;;
2884;SDS011;54691;48.262;11.586;2022-12-20T10:52:18;18.85;;;6.53;;
2884;SDS011;54691;48.262;11.586;2022-12-20T10:55:50;9.28;;;4.25;;
2884;SDS011;54691;48.262;11.586;2022-12-20T11:06:24;19.00;;;5.20;;
2884;SDS011;54691;48.262;11.586;2022-12-20T11:09:56;8.85;;;3.65;;
2884;SDS011;54691;48.262;11.586;2022-12-20T11:16:56;9.23;;;3.60;;
2884;SDS011;54691;48.262;11.586;2022-12-20T11:38:49;2.40;;;0.82;;
2884;SDS011;54691;48.262;11.586;2022-12-20T11:42:35;9.55;;;1.67;;
2884;SDS011;54691;48.262;11.586;2022-12-20T12:01:36;8.20;;;1.62;;
2884;SDS011;54691;48.262;11.586;2022-12-20T12:08:48;6.33;;;1.22;;
2884;SDS011;54691;48.262;11.586;2022-12-20T12:12:41;2.60;;;0.90;;
2884;SDS011;54691;48.262;11.586;2022-12-20T12:16:31;15.63;;;1.90;;
2884;SDS011;54691;48.262;11.586;2022-12-20T12:24:22;10.25;;;2.40;;
2884;SDS011;54691;48.262;11.586;2022-12-20T12:27:51;19.95;;;3.08;;
2884;SDS011;54691;48.262;11.586;2022-12-20T12:45:50;41.37;;;8.68;;
2884;SDS011;54691;48.262;11.586;2022-12-20T12:49:17;23.80;;;3.70;;
2884;SDS011;54691;48.262;11.586;2022-12-20T12:53:17;48.25;;;8.05;;
2884;SDS011;54691;48.262;11.586;2022-12-20T13:08:22;17.75;;;2.42;;
2884;SDS011;54691;48.262;11.586;2022-12-20T13:45:44;22.67;;;3.17;;
2884;SDS011;54691;48.262;11.586;2022-12-20T13:53:15;41.40;;;6.28;;
2884;SDS011;54691;48.262;11.586;2022-12-20T14:00:12;37.05;;;5.75;;
2884;SDS011;54691;48.262;11.586;2022-12-20T14:07:24;40.08;;;5.33;;
2884;SDS011;54691;48.262;11.586;2022-12-20T14:18:39;53.55;;;7.70;;
2884;SDS011;54691;48.262;11.586;2022-12-20T14:29:46;108.45;;;14.60;;
2884;SDS011;54691;48.262;11.586;2022-12-20T15:10:21;94.87;;;12.15;;
2884;SDS011;54691;48.262;11.586;2022-12-20T15:21:10;87.75;;;10.00;;
2884;SDS011;54691;48.262;11.586;2022-12-20T15:56:42;89.52;;;6.47;;
2884;SDS011;54691;48.262;11.586;2022-12-20T16:03:39;121.77;;;12.18;;
2884;SDS011;54691;48.262;11.586;2022-12-20T16:10:36;76.37;;;7.00;;
2884;SDS011;54691;48.262;11.586;2022-12-20T16:17:35;75.20;;;8.48;;
2884;SDS011;54691;48.262;11.586;2022-12-20T16:24:38;143.85;;;13.85;;
2884;SDS011;54691;48.262;11.586;2022-12-20T16:31:34;166.15;;;19.27;;
2884;SDS011;54691;48.262;11.586;2022-12-20T16:38:31;166.60;;;13.98;;
2884;SDS011;54691;48.262;11.586;2022-12-20T16:45:30;122.42;;;10.60;;
2884;SDS011;54691;48.262;11.586;2022-12-20T16:52:29;93.72;;;11.33;;
2884;SDS011;54691;48.262;11.586;2022-12-20T16:59:27;182.25;;;17.25;;
2884;SDS011;54691;48.262;11.586;2022-12-20T17:06:25;88.07;;;9.38;;
2884;SDS011;54691;48.262;11.586;2022-12-20T17:13:25;77.40;;;9.00;;
2884;SDS011;54691;48.262;11.586;2022-12-20T17:20:24;31.55;;;3.70;;
2884;SDS011;54691;48.262;11.586;2022-12-20T17:27:23;34.90;;;3.87;;
2884;SDS011;54691;48.262;11.586;2022-12-20T17:34:21;49.73;;;4.40;;
2884;SDS011;54691;48.262;11.586;2022-12-20T17:44:54;102.42;;;9.28;;
2884;SDS011;54691;48.262;11.586;2022-12-20T17:51:51;176.70;;;16.95;;
2884;SDS011;54691;48.262;11.586;2022-12-20T17:58:50;96.40;;;8.45;;
2884;SDS011;54691;48.262;11.586;2022-12-20T18:05:48;130.75;;;12.60;;
2884;SDS011;54691;48.262;11.586;2022-12-20T18:12:45;73.33;;;7.92;;
2884;SDS011;54691;48.262;11.586;2022-12-20T18:19:43;122.50;;;13.45;;
2884;SDS011;54691;48.262;11.586;2022-12-20T18:26:40;46.15;;;5.40;;
2884;SDS011;54691;48.262;11.586;2022-12-20T18:33:38;59.13;;;6.50;;
2884;SDS011;54691;48.262;11.586;2022-12-20T18:40:42;102.30;;;10.60;;
2884;SDS011;54691;48.262;11.586;2022-12-20T18:47:36;166.75;;;16.52;;
2884;SDS011;54691;48.262;11.586;2022-12-20T18:54:33;93.82;;;9.50;;
2884;SDS011;54691;48.262;11.586;2022-12-20T19:01:33;110.55;;;10.15;;
2884;SDS011;54691;48.262;11.586;2022-12-20T19:08:30;141.53;;;13.70;;
2884;SDS011;54691;48.262;11.586;2022-12-20T19:15:27;84.03;;;8.38;;
2884;SDS011;54691;48.262;11.586;2022-12-20T19:22:25;112.68;;;10.68;;
2884;SDS011;54691;48.262;11.586;2022-12-20T19:29:22;96.40;;;10.78;;
2884;SDS011;54691;48.262;11.586;2022-12-20T19:36:20;194.72;;;16.95;;
2884;SDS011;54691;48.262;11.586;2022-12-20T19:43:19;126.10;;;11.80;;
2884;SDS011;54691;48.262;11.586;2022-12-20T19:50:16;157.12;;;15.63;;
2884;SDS011;54691;48.262;11.586;2022-12-20T19:57:14;160.18;;;16.85;;
2884;SDS011;54691;48.262;11.586;2022-12-20T20:07:49;108.07;;;10.13;;
2884;SDS011;54691;48.262;11.586;2022-12-20T20:14:47;86.17;;;9.85;;
2884;SDS011;54691;48.262;11.586;2022-12-20T20:21:46;144.20;;;13.62;;
2884;SDS011;54691;48.262;11.586;2022-12-20T20:28:45;159.22;;;17.17;;
2884;SDS011;54691;48.262;11.586;2022-12-20T20:35:42;161.92;;;15.10;;
2884;SDS011;54691;48.262;11.586;2022-12-20T20:42:39;83.17;;;10.00;;
2884;SDS011;54691;48.262;11.586;2022-12-20T20:49:37;233.75;;;22.27;;
2884;SDS011;54691;48.262;11.586;2022-12-20T20:56:37;70.35;;;7.33;;
2884;SDS011;54691;48.262;11.586;2022-12-20T21:03:34;158.37;;;14.15;;
2884;SDS011;54691;48.262;11.586;2022-12-20T21:10:32;212.65;;;17.52;;
2884;SDS011;54691;48.262;11.586;2022-12-20T21:17:31;126.60;;;11.60;;
2884;SDS011;54691;48.262;11.586;2022-12-20T21:24:28;199.38;;;20.12;;
2884;SDS011;54691;48.262;11.586;2022-12-20T21:31:25;93.35;;;9.88;;
2884;SDS011;54691;48.262;11.586;2022-12-20T21:38:22;223.05;;;20.00;;
2884;SDS011;54691;48.262;11.586;2022-12-20T21:45:19;113.35;;;10.93;;
2884;SDS011;54691;48.262;11.586;2022-12-20T21:52:16;146.93;;;15.08;;
2884;SDS011;54691;48.262;11.586;2022-12-20T21:59:13;104.70;;;10.72;;
2884;SDS011;54691;48.262;11.586;2022-12-20T22:06:10;136.62;;;14.45;;
2884;SDS011;54691;48.262;11.586;2022-12-20T22:13:08;90.87;;;8.95;;
2884;SDS011;54691;48.262;11.586;2022-12-20T22:20:05;107.20;;;9.43;;
2884;SDS011;54691;48.262;11.586;2022-12-20T22:27:04;84.90;;;8.43;;
2884;SDS011;54691;48.262;11.586;2022-12-20T22:34:01;145.75;;;15.78;;
2884;SDS011;54691;48.262;11.586;2022-12-20T22:44:42;68.40;;;9.40;;
2884;SDS011;54691;48.262;11.586;2022-12-20T22:51:39;80.00;;;9.65;;
2884;SDS011;54691;48.262;11.586;2022-12-20T22:58:38;76.85;;;8.18;;
2884;SDS011;54691;48.262;11.586;2022-12-20T23:09:10;102.62;;;10.28;;
2884;SDS011;54691;48.262;11.586;2022-12-20T23:16:27;68.70;;;8.35;;
2884;SDS011;54691;48.262;11.586;2022-12-20T23:23:48;202.90;;;20.53;;
2884;SDS011;54691;48.262;11.586;2022-12-20T23:27:29;77.87;;;7.95;;
2884;SDS011;54691;48.262;11.586;2022-12-20T23:34:27;103.55;;;11.65;;
2884;SDS011;54691;48.262;11.586;2022-12-20T23:41:24;198.32;;;18.90;;
2884;SDS011;54691;48.262;11.586;2022-12-20T23:48:25;108.20;;;12.18;;
2884;SDS011;54691;48.262;11.586;2022-12-20T23:55:24;104.97;;;10.80;;
